sensor_id;sensor_type;location;lat;lon;timestamp;P1;durP1;ratioP1;P2;durP2;ratioP2
75499;SDS011;64076;51.466;7.260;2022-12-19T00:01:36;13.13;;;10.50;;
75499;SDS011;64076;51.466;7.260;2022-12-19T00:04:04;13.05;;;10.50;;
75499;SDS011;64076;51.466;7.260;2022-12-19T00:06:30;12.82;;;10.63;;
75499;SDS011;64076;51.466;7.260;2022-12-19T00:08:57;13.38;;;11.50;;
75499;SDS011;64076;51.466;7.260;2022-12-19T00:11:24;12.80;;;9.93;;
75499;SDS011;64076;51.466;7.260;2022-12-19T00:13:50;14.50;;;10.63;;
75499;SDS011;64076;51.466;7.260;2022-12-19T00:16:21;12.38;;;10.32;;
75499;SDS011;64076;51.466;7.260;2022-12-19T00:18:48;11.65;;;9.48;;
75499;SDS011;64076;51.466;7.260;2022-12-19T00:21:15;11.77;;;9.40;;
75499;SDS011;64076;51.466;7.260;2022-12-19T00:23:41;11.13;;;9.07;;
75499;SDS011;64076;51.466;7.260;2022-12-19T00:26:21;13.35;;;9.82;;
75499;SDS011;64076;51.466;7.260;2022-12-19T00:28:48;12.77;;;10.23;;
75499;SDS011;64076;51.466;7.260;2022-12-19T00:31:15;14.00;;;10.27;;
75499;SDS011;64076;51.466;7.260;2022-12-19T00:33:41;14.15;;;10.85;;
75499;SDS011;64076;51.466;7.260;2022-12-19T00:36:10;11.93;;;9.37;;
75499;SDS011;64076;51.466;7.260;2022-12-19T00:38:36;12.95;;;10.45;;
75499;SDS011;64076;51.466;7.260;2022-12-19T00:41:09;12.48;;;9.77;;
75499;SDS011;64076;51.466;7.260;2022-12-19T00:43:35;11.95;;;9.70;;
75499;SDS011;64076;51.466;7.260;2022-12-19T00:46:02;12.68;;;9.30;;
75499;SDS011;64076;51.466;7.260;2022-12-19T00:48:29;12.57;;;10.23;;
75499;SDS011;64076;51.466;7.260;2022-12-19T00:50:59;12.75;;;10.25;;
75499;SDS011;64076;51.466;7.260;2022-12-19T00:53:25;12.55;;;9.68;;
75499;SDS011;64076;51.466;7.260;2022-12-19T00:55:51;12.82;;;9.75;;
75499;SDS011;64076;51.466;7.260;2022-12-19T00:58:17;11.37;;;9.77;;
75499;SDS011;64076;51.466;7.260;2022-12-19T01:00:43;11.57;;;9.93;;
75499;SDS011;64076;51.466;7.260;2022-12-19T01:03:09;13.68;;;10.18;;
75499;SDS011;64076;51.466;7.260;2022-12-19T01:05:35;11.73;;;9.43;;
75499;SDS011;64076;51.466;7.260;2022-12-19T01:08:01;12.40;;;10.05;;
75499;SDS011;64076;51.466;7.260;2022-12-19T01:10:27;12.17;;;10.07;;
75499;SDS011;64076;51.466;7.260;2022-12-19T01:12:53;12.20;;;10.45;;
75499;SDS011;64076;51.466;7.260;2022-12-19T01:15:19;13.07;;;9.70;;
75499;SDS011;64076;51.466;7.260;2022-12-19T01:17:48;13.10;;;9.80;;
75499;SDS011;64076;51.466;7.260;2022-12-19T01:20:15;12.23;;;9.88;;
75499;SDS011;64076;51.466;7.260;2022-12-19T01:22:42;12.83;;;9.57;;
75499;SDS011;64076;51.466;7.260;2022-12-19T01:25:08;12.27;;;9.60;;
75499;SDS011;64076;51.466;7.260;2022-12-19T01:27:34;12.23;;;9.48;;
75499;SDS011;64076;51.466;7.260;2022-12-19T01:30:00;12.63;;;10.25;;
75499;SDS011;64076;51.466;7.260;2022-12-19T01:32:26;12.02;;;10.07;;
75499;SDS011;64076;51.466;7.260;2022-12-19T01:34:52;12.43;;;9.73;;
75499;SDS011;64076;51.466;7.260;2022-12-19T01:37:19;13.38;;;10.13;;
75499;SDS011;64076;51.466;7.260;2022-12-19T01:39:45;11.90;;;9.73;;
75499;SDS011;64076;51.466;7.260;2022-12-19T01:42:14;11.80;;;9.88;;
75499;SDS011;64076;51.466;7.260;2022-12-19T01:44:57;12.65;;;9.95;;
75499;SDS011;64076;51.466;7.260;2022-12-19T01:47:23;12.73;;;10.20;;
75499;SDS011;64076;51.466;7.260;2022-12-19T01:49:49;13.68;;;9.90;;
75499;SDS011;64076;51.466;7.260;2022-12-19T01:52:15;14.52;;;10.25;;
75499;SDS011;64076;51.466;7.260;2022-12-19T01:54:42;12.75;;;9.27;;
75499;SDS011;64076;51.466;7.260;2022-12-19T01:57:10;11.52;;;9.77;;
75499;SDS011;64076;51.466;7.260;2022-12-19T01:59:44;12.03;;;9.40;;
75499;SDS011;64076;51.466;7.260;2022-12-19T02:02:14;11.57;;;9.32;;
75499;SDS011;64076;51.466;7.260;2022-12-19T02:04:41;12.50;;;9.80;;
75499;SDS011;64076;51.466;7.260;2022-12-19T02:07:08;12.65;;;9.98;;
75499;SDS011;64076;51.466;7.260;2022-12-19T02:09:34;10.93;;;9.38;;
75499;SDS011;64076;51.466;7.260;2022-12-19T02:12:00;11.70;;;9.40;;
75499;SDS011;64076;51.466;7.260;2022-12-19T02:14:27;12.82;;;9.93;;
75499;SDS011;64076;51.466;7.260;2022-12-19T02:17:14;11.93;;;8.98;;
75499;SDS011;64076;51.466;7.260;2022-12-19T02:22:31;11.57;;;9.27;;
75499;SDS011;64076;51.466;7.260;2022-12-19T02:25:03;11.57;;;9.40;;
75499;SDS011;64076;51.466;7.260;2022-12-19T02:33:00;11.65;;;9.20;;
75499;SDS011;64076;51.466;7.260;2022-12-19T02:35:30;11.82;;;9.45;;
75499;SDS011;64076;51.466;7.260;2022-12-19T02:38:04;11.80;;;9.40;;
75499;SDS011;64076;51.466;7.260;2022-12-19T02:40:33;11.65;;;9.13;;
75499;SDS011;64076;51.466;7.260;2022-12-19T02:43:02;12.55;;;9.93;;
75499;SDS011;64076;51.466;7.260;2022-12-19T02:45:31;11.27;;;9.02;;
75499;SDS011;64076;51.466;7.260;2022-12-19T02:47:59;11.77;;;9.65;;
75499;SDS011;64076;51.466;7.260;2022-12-19T02:50:34;11.53;;;9.33;;
75499;SDS011;64076;51.466;7.260;2022-12-19T02:53:00;11.30;;;8.93;;
75499;SDS011;64076;51.466;7.260;2022-12-19T02:55:26;11.52;;;9.38;;
75499;SDS011;64076;51.466;7.260;2022-12-19T02:58:02;12.88;;;9.63;;
75499;SDS011;64076;51.466;7.260;2022-12-19T03:00:30;10.95;;;9.05;;
75499;SDS011;64076;51.466;7.260;2022-12-19T03:03:09;12.30;;;9.40;;
75499;SDS011;64076;51.466;7.260;2022-12-19T03:08:36;11.50;;;9.07;;
75499;SDS011;64076;51.466;7.260;2022-12-19T03:13:29;10.17;;;8.40;;
75499;SDS011;64076;51.466;7.260;2022-12-19T03:15:57;11.25;;;8.90;;
75499;SDS011;64076;51.466;7.260;2022-12-19T03:18:23;11.80;;;9.13;;
75499;SDS011;64076;51.466;7.260;2022-12-19T03:20:51;11.30;;;9.25;;
75499;SDS011;64076;51.466;7.260;2022-12-19T03:23:19;11.57;;;9.30;;
75499;SDS011;64076;51.466;7.260;2022-12-19T03:25:47;10.57;;;8.80;;
75499;SDS011;64076;51.466;7.260;2022-12-19T03:28:20;11.85;;;9.30;;
75499;SDS011;64076;51.466;7.260;2022-12-19T03:30:48;11.35;;;8.52;;
75499;SDS011;64076;51.466;7.260;2022-12-19T03:33:15;15.50;;;11.27;;
75499;SDS011;64076;51.466;7.260;2022-12-19T03:35:42;10.52;;;8.63;;
75499;SDS011;64076;51.466;7.260;2022-12-19T03:38:08;11.20;;;8.63;;
75499;SDS011;64076;51.466;7.260;2022-12-19T03:40:34;11.63;;;9.52;;
75499;SDS011;64076;51.466;7.260;2022-12-19T03:43:03;9.68;;;8.35;;
75499;SDS011;64076;51.466;7.260;2022-12-19T03:48:01;11.25;;;8.85;;
75499;SDS011;64076;51.466;7.260;2022-12-19T03:50:30;11.13;;;8.40;;
75499;SDS011;64076;51.466;7.260;2022-12-19T04:00:14;10.83;;;8.70;;
75499;SDS011;64076;51.466;7.260;2022-12-19T04:02:43;11.32;;;9.02;;
75499;SDS011;64076;51.466;7.260;2022-12-19T04:05:11;10.45;;;8.43;;
75499;SDS011;64076;51.466;7.260;2022-12-19T04:07:38;10.82;;;8.85;;
75499;SDS011;64076;51.466;7.260;2022-12-19T04:10:05;11.60;;;9.10;;
75499;SDS011;64076;51.466;7.260;2022-12-19T04:12:34;10.38;;;8.20;;
75499;SDS011;64076;51.466;7.260;2022-12-19T04:15:02;12.00;;;9.00;;
75499;SDS011;64076;51.466;7.260;2022-12-19T04:17:47;10.82;;;8.77;;
75499;SDS011;64076;51.466;7.260;2022-12-19T04:20:17;10.15;;;8.30;;
75499;SDS011;64076;51.466;7.260;2022-12-19T04:22:55;10.13;;;8.97;;
75499;SDS011;64076;51.466;7.260;2022-12-19T04:25:24;10.82;;;8.45;;
75499;SDS011;64076;51.466;7.260;2022-12-19T04:27:52;11.65;;;8.90;;
75499;SDS011;64076;51.466;7.260;2022-12-19T04:30:20;10.98;;;8.70;;
75499;SDS011;64076;51.466;7.260;2022-12-19T04:32:47;11.00;;;8.93;;
75499;SDS011;64076;51.466;7.260;2022-12-19T04:35:14;11.23;;;8.83;;
75499;SDS011;64076;51.466;7.260;2022-12-19T04:37:40;10.75;;;7.95;;
75499;SDS011;64076;51.466;7.260;2022-12-19T04:40:07;11.25;;;8.68;;
75499;SDS011;64076;51.466;7.260;2022-12-19T04:42:33;10.90;;;8.75;;
75499;SDS011;64076;51.466;7.260;2022-12-19T04:44:59;12.05;;;8.45;;
75499;SDS011;64076;51.466;7.260;2022-12-19T04:47:25;10.30;;;8.57;;
75499;SDS011;64076;51.466;7.260;2022-12-19T04:49:51;11.43;;;8.52;;
75499;SDS011;64076;51.466;7.260;2022-12-19T04:52:17;10.70;;;8.30;;
75499;SDS011;64076;51.466;7.260;2022-12-19T04:54:43;10.70;;;8.48;;
75499;SDS011;64076;51.466;7.260;2022-12-19T04:57:09;11.80;;;8.93;;
75499;SDS011;64076;51.466;7.260;2022-12-19T04:59:35;10.52;;;8.75;;
75499;SDS011;64076;51.466;7.260;2022-12-19T05:02:01;10.38;;;8.88;;
75499;SDS011;64076;51.466;7.260;2022-12-19T05:04:27;10.40;;;8.55;;
75499;SDS011;64076;51.466;7.260;2022-12-19T05:06:53;11.27;;;8.63;;
75499;SDS011;64076;51.466;7.260;2022-12-19T05:09:19;10.20;;;8.40;;
75499;SDS011;64076;51.466;7.260;2022-12-19T05:11:45;9.57;;;8.07;;
75499;SDS011;64076;51.466;7.260;2022-12-19T05:14:11;10.55;;;8.27;;
75499;SDS011;64076;51.466;7.260;2022-12-19T05:16:37;10.88;;;8.27;;
75499;SDS011;64076;51.466;7.260;2022-12-19T05:19:03;10.27;;;7.73;;
75499;SDS011;64076;51.466;7.260;2022-12-19T05:21:29;9.95;;;8.30;;
75499;SDS011;64076;51.466;7.260;2022-12-19T05:23:55;10.30;;;8.77;;
75499;SDS011;64076;51.466;7.260;2022-12-19T05:26:21;11.35;;;8.23;;
75499;SDS011;64076;51.466;7.260;2022-12-19T05:28:47;10.25;;;8.60;;
75499;SDS011;64076;51.466;7.260;2022-12-19T05:31:17;9.83;;;8.20;;
75499;SDS011;64076;51.466;7.260;2022-12-19T05:33:44;9.95;;;8.15;;
75499;SDS011;64076;51.466;7.260;2022-12-19T05:36:10;10.75;;;8.23;;
75499;SDS011;64076;51.466;7.260;2022-12-19T05:38:37;11.48;;;8.60;;
75499;SDS011;64076;51.466;7.260;2022-12-19T05:41:06;10.07;;;8.27;;
75499;SDS011;64076;51.466;7.260;2022-12-19T05:43:32;10.57;;;8.23;;
75499;SDS011;64076;51.466;7.260;2022-12-19T05:45:58;10.77;;;8.07;;
75499;SDS011;64076;51.466;7.260;2022-12-19T05:48:24;10.20;;;8.45;;
75499;SDS011;64076;51.466;7.260;2022-12-19T05:50:50;11.53;;;9.07;;
75499;SDS011;64076;51.466;7.260;2022-12-19T05:53:16;11.50;;;8.50;;
75499;SDS011;64076;51.466;7.260;2022-12-19T05:55:43;10.07;;;8.10;;
75499;SDS011;64076;51.466;7.260;2022-12-19T05:58:09;9.90;;;8.10;;
75499;SDS011;64076;51.466;7.260;2022-12-19T06:00:35;11.13;;;8.27;;
75499;SDS011;64076;51.466;7.260;2022-12-19T06:03:01;10.40;;;8.50;;
75499;SDS011;64076;51.466;7.260;2022-12-19T06:05:27;9.48;;;7.88;;
75499;SDS011;64076;51.466;7.260;2022-12-19T06:07:53;10.27;;;8.02;;
75499;SDS011;64076;51.466;7.260;2022-12-19T06:10:19;10.27;;;8.63;;
75499;SDS011;64076;51.466;7.260;2022-12-19T06:12:45;10.50;;;8.40;;
75499;SDS011;64076;51.466;7.260;2022-12-19T06:15:11;9.48;;;8.20;;
75499;SDS011;64076;51.466;7.260;2022-12-19T06:17:37;9.18;;;8.10;;
75499;SDS011;64076;51.466;7.260;2022-12-19T06:20:03;9.73;;;7.78;;
75499;SDS011;64076;51.466;7.260;2022-12-19T06:22:30;9.13;;;7.60;;
75499;SDS011;64076;51.466;7.260;2022-12-19T06:24:56;8.30;;;6.87;;
75499;SDS011;64076;51.466;7.260;2022-12-19T06:27:22;7.45;;;6.68;;
75499;SDS011;64076;51.466;7.260;2022-12-19T06:29:48;7.55;;;5.97;;
75499;SDS011;64076;51.466;7.260;2022-12-19T06:32:14;6.43;;;5.63;;
75499;SDS011;64076;51.466;7.260;2022-12-19T06:34:40;6.30;;;5.45;;
75499;SDS011;64076;51.466;7.260;2022-12-19T06:37:06;6.78;;;5.68;;
75499;SDS011;64076;51.466;7.260;2022-12-19T06:39:32;6.13;;;5.18;;
75499;SDS011;64076;51.466;7.260;2022-12-19T06:41:59;5.93;;;5.20;;
75499;SDS011;64076;51.466;7.260;2022-12-19T06:44:43;6.25;;;4.90;;
75499;SDS011;64076;51.466;7.260;2022-12-19T06:47:08;5.13;;;4.53;;
75499;SDS011;64076;51.466;7.260;2022-12-19T06:49:34;5.63;;;4.85;;
75499;SDS011;64076;51.466;7.260;2022-12-19T06:52:00;5.33;;;4.20;;
75499;SDS011;64076;51.466;7.260;2022-12-19T06:54:25;4.95;;;4.07;;
75499;SDS011;64076;51.466;7.260;2022-12-19T06:56:52;5.22;;;4.10;;
75499;SDS011;64076;51.466;7.260;2022-12-19T06:59:18;4.50;;;3.80;;
75499;SDS011;64076;51.466;7.260;2022-12-19T07:04:09;4.43;;;3.55;;
75499;SDS011;64076;51.466;7.260;2022-12-19T07:06:37;4.45;;;3.72;;
75499;SDS011;64076;51.466;7.260;2022-12-19T07:09:04;4.20;;;3.30;;
75499;SDS011;64076;51.466;7.260;2022-12-19T07:11:30;3.80;;;3.05;;
75499;SDS011;64076;51.466;7.260;2022-12-19T07:13:56;4.07;;;3.53;;
75499;SDS011;64076;51.466;7.260;2022-12-19T07:16:22;4.07;;;3.15;;
75499;SDS011;64076;51.466;7.260;2022-12-19T07:18:48;4.20;;;3.38;;
75499;SDS011;64076;51.466;7.260;2022-12-19T07:21:14;3.53;;;2.90;;
75499;SDS011;64076;51.466;7.260;2022-12-19T07:23:40;4.63;;;2.90;;
75499;SDS011;64076;51.466;7.260;2022-12-19T07:26:06;3.90;;;3.08;;
75499;SDS011;64076;51.466;7.260;2022-12-19T07:28:32;3.45;;;2.85;;
75499;SDS011;64076;51.466;7.260;2022-12-19T07:30:59;4.00;;;2.83;;
75499;SDS011;64076;51.466;7.260;2022-12-19T07:33:25;3.45;;;2.85;;
75499;SDS011;64076;51.466;7.260;2022-12-19T07:35:51;3.65;;;3.00;;
75499;SDS011;64076;51.466;7.260;2022-12-19T07:38:17;3.88;;;3.00;;
75499;SDS011;64076;51.466;7.260;2022-12-19T07:40:43;4.50;;;3.27;;
75499;SDS011;64076;51.466;7.260;2022-12-19T07:43:08;4.05;;;3.17;;
75499;SDS011;64076;51.466;7.260;2022-12-19T07:45:35;3.33;;;3.00;;
75499;SDS011;64076;51.466;7.260;2022-12-19T07:48:03;3.42;;;2.72;;
75499;SDS011;64076;51.466;7.260;2022-12-19T07:50:32;4.20;;;2.75;;
75499;SDS011;64076;51.466;7.260;2022-12-19T07:52:58;3.35;;;2.67;;
75499;SDS011;64076;51.466;7.260;2022-12-19T07:55:25;3.80;;;2.90;;
75499;SDS011;64076;51.466;7.260;2022-12-19T07:57:51;3.20;;;2.75;;
75499;SDS011;64076;51.466;7.260;2022-12-19T08:00:17;3.05;;;2.70;;
75499;SDS011;64076;51.466;7.260;2022-12-19T08:02:43;2.97;;;2.63;;
75499;SDS011;64076;51.466;7.260;2022-12-19T08:05:09;3.10;;;2.67;;
75499;SDS011;64076;51.466;7.260;2022-12-19T08:07:35;3.08;;;2.40;;
75499;SDS011;64076;51.466;7.260;2022-12-19T08:10:01;3.53;;;2.78;;
75499;SDS011;64076;51.466;7.260;2022-12-19T08:12:27;3.80;;;3.10;;
75499;SDS011;64076;51.466;7.260;2022-12-19T08:14:53;4.03;;;3.00;;
75499;SDS011;64076;51.466;7.260;2022-12-19T08:17:19;3.80;;;2.97;;
75499;SDS011;64076;51.466;7.260;2022-12-19T08:19:45;3.70;;;2.80;;
75499;SDS011;64076;51.466;7.260;2022-12-19T08:22:11;3.67;;;2.78;;
75499;SDS011;64076;51.466;7.260;2022-12-19T08:24:37;7.70;;;2.87;;
75499;SDS011;64076;51.466;7.260;2022-12-19T08:27:03;4.10;;;2.75;;
75499;SDS011;64076;51.466;7.260;2022-12-19T08:29:28;3.22;;;2.65;;
75499;SDS011;64076;51.466;7.260;2022-12-19T08:31:54;3.53;;;2.83;;
75499;SDS011;64076;51.466;7.260;2022-12-19T08:34:20;4.30;;;3.20;;
75499;SDS011;64076;51.466;7.260;2022-12-19T08:36:45;3.28;;;2.63;;
75499;SDS011;64076;51.466;7.260;2022-12-19T08:39:11;4.87;;;3.00;;
75499;SDS011;64076;51.466;7.260;2022-12-19T08:41:36;3.37;;;2.90;;
75499;SDS011;64076;51.466;7.260;2022-12-19T08:44:02;3.67;;;2.90;;
75499;SDS011;64076;51.466;7.260;2022-12-19T08:46:27;5.90;;;3.00;;
75499;SDS011;64076;51.466;7.260;2022-12-19T08:48:53;3.42;;;2.70;;
75499;SDS011;64076;51.466;7.260;2022-12-19T08:51:20;3.10;;;2.40;;
75499;SDS011;64076;51.466;7.260;2022-12-19T08:53:46;2.67;;;2.30;;
75499;SDS011;64076;51.466;7.260;2022-12-19T08:56:15;3.03;;;2.40;;
75499;SDS011;64076;51.466;7.260;2022-12-19T08:58:43;3.67;;;2.53;;
75499;SDS011;64076;51.466;7.260;2022-12-19T09:01:10;3.10;;;2.50;;
75499;SDS011;64076;51.466;7.260;2022-12-19T09:03:42;3.70;;;2.50;;
75499;SDS011;64076;51.466;7.260;2022-12-19T09:06:09;2.90;;;2.57;;
75499;SDS011;64076;51.466;7.260;2022-12-19T09:08:36;3.47;;;2.40;;
75499;SDS011;64076;51.466;7.260;2022-12-19T09:11:03;3.28;;;2.70;;
75499;SDS011;64076;51.466;7.260;2022-12-19T09:13:30;2.78;;;2.30;;
75499;SDS011;64076;51.466;7.260;2022-12-19T09:18:53;2.90;;;2.50;;
75499;SDS011;64076;51.466;7.260;2022-12-19T09:21:21;3.35;;;2.75;;
75499;SDS011;64076;51.466;7.260;2022-12-19T09:23:52;2.72;;;2.17;;
75499;SDS011;64076;51.466;7.260;2022-12-19T09:26:19;3.10;;;2.25;;
75499;SDS011;64076;51.466;7.260;2022-12-19T09:28:46;3.22;;;2.53;;
75499;SDS011;64076;51.466;7.260;2022-12-19T09:31:14;3.23;;;2.53;;
75499;SDS011;64076;51.466;7.260;2022-12-19T09:33:42;2.70;;;2.20;;
75499;SDS011;64076;51.466;7.260;2022-12-19T09:36:13;3.38;;;2.40;;
75499;SDS011;64076;51.466;7.260;2022-12-19T09:38:40;2.83;;;2.50;;
75499;SDS011;64076;51.466;7.260;2022-12-19T09:47:04;2.97;;;2.13;;
75499;SDS011;64076;51.466;7.260;2022-12-19T09:49:38;2.90;;;2.35;;
75499;SDS011;64076;51.466;7.260;2022-12-19T09:52:10;2.95;;;2.10;;
75499;SDS011;64076;51.466;7.260;2022-12-19T09:54:50;2.58;;;2.10;;
75499;SDS011;64076;51.466;7.260;2022-12-19T10:00:12;2.90;;;2.10;;
75499;SDS011;64076;51.466;7.260;2022-12-19T10:02:47;2.70;;;2.25;;
75499;SDS011;64076;51.466;7.260;2022-12-19T10:07:54;2.70;;;2.40;;
75499;SDS011;64076;51.466;7.260;2022-12-19T10:10:44;2.70;;;2.30;;
75499;SDS011;64076;51.466;7.260;2022-12-19T10:13:16;2.78;;;2.25;;
75499;SDS011;64076;51.466;7.260;2022-12-19T10:21:08;2.53;;;2.10;;
75499;SDS011;64076;51.466;7.260;2022-12-19T10:26:39;2.65;;;2.40;;
75499;SDS011;64076;51.466;7.260;2022-12-19T10:29:52;2.40;;;2.10;;
75499;SDS011;64076;51.466;7.260;2022-12-19T10:35:29;2.83;;;2.10;;
75499;SDS011;64076;51.466;7.260;2022-12-19T10:41:12;3.03;;;2.30;;
75499;SDS011;64076;51.466;7.260;2022-12-19T10:46:49;2.85;;;2.28;;
75499;SDS011;64076;51.466;7.260;2022-12-19T10:49:16;3.22;;;1.98;;
75499;SDS011;64076;51.466;7.260;2022-12-19T10:54:24;2.80;;;2.33;;
75499;SDS011;64076;51.466;7.260;2022-12-19T10:56:51;3.00;;;2.00;;
75499;SDS011;64076;51.466;7.260;2022-12-19T10:59:19;2.40;;;2.08;;
75499;SDS011;64076;51.466;7.260;2022-12-19T11:01:45;2.58;;;2.00;;
75499;SDS011;64076;51.466;7.260;2022-12-19T11:06:43;2.60;;;2.33;;
75499;SDS011;64076;51.466;7.260;2022-12-19T11:09:28;2.67;;;2.20;;
75499;SDS011;64076;51.466;7.260;2022-12-19T11:11:56;2.73;;;1.90;;
75499;SDS011;64076;51.466;7.260;2022-12-19T11:14:32;2.75;;;2.03;;
75499;SDS011;64076;51.466;7.260;2022-12-19T11:16:59;2.28;;;1.70;;
75499;SDS011;64076;51.466;7.260;2022-12-19T11:19:29;2.80;;;2.20;;
75499;SDS011;64076;51.466;7.260;2022-12-19T11:22:05;3.42;;;2.05;;
75499;SDS011;64076;51.466;7.260;2022-12-19T11:24:40;2.53;;;1.90;;
75499;SDS011;64076;51.466;7.260;2022-12-19T11:27:55;2.92;;;2.20;;
75499;SDS011;64076;51.466;7.260;2022-12-19T11:30:17;2.60;;;2.08;;
75499;SDS011;64076;51.466;7.260;2022-12-19T11:32:48;2.40;;;1.90;;
75499;SDS011;64076;51.466;7.260;2022-12-19T11:35:32;2.40;;;2.00;;
75499;SDS011;64076;51.466;7.260;2022-12-19T11:38:11;2.80;;;2.38;;
75499;SDS011;64076;51.466;7.260;2022-12-19T11:40:43;3.83;;;2.45;;
75499;SDS011;64076;51.466;7.260;2022-12-19T11:43:19;2.55;;;2.13;;
75499;SDS011;64076;51.466;7.260;2022-12-19T11:46:01;3.40;;;2.07;;
75499;SDS011;64076;51.466;7.260;2022-12-19T11:51:42;2.92;;;2.20;;
75499;SDS011;64076;51.466;7.260;2022-12-19T11:56:47;3.58;;;2.10;;
75499;SDS011;64076;51.466;7.260;2022-12-19T11:59:20;2.77;;;2.10;;
75499;SDS011;64076;51.466;7.260;2022-12-19T12:02:08;4.18;;;2.38;;
75499;SDS011;64076;51.466;7.260;2022-12-19T12:07:29;3.40;;;2.10;;
75499;SDS011;64076;51.466;7.260;2022-12-19T12:12:39;2.83;;;2.00;;
75499;SDS011;64076;51.466;7.260;2022-12-19T12:15:26;2.58;;;2.03;;
75499;SDS011;64076;51.466;7.260;2022-12-19T12:21:05;3.27;;;2.27;;
75499;SDS011;64076;51.466;7.260;2022-12-19T12:26:25;4.93;;;2.10;;
75499;SDS011;64076;51.466;7.260;2022-12-19T12:31:51;3.00;;;2.13;;
75499;SDS011;64076;51.466;7.260;2022-12-19T12:42:31;2.90;;;2.28;;
75499;SDS011;64076;51.466;7.260;2022-12-19T12:44:59;2.70;;;2.17;;
75499;SDS011;64076;51.466;7.260;2022-12-19T12:47:27;2.95;;;2.30;;
75499;SDS011;64076;51.466;7.260;2022-12-19T12:50:01;4.85;;;2.58;;
75499;SDS011;64076;51.466;7.260;2022-12-19T12:54:56;3.33;;;2.55;;
75499;SDS011;64076;51.466;7.260;2022-12-19T13:07:57;7.43;;;3.20;;
75499;SDS011;64076;51.466;7.260;2022-12-19T13:10:29;3.50;;;2.77;;
75499;SDS011;64076;51.466;7.260;2022-12-19T13:15:29;3.55;;;2.65;;
75499;SDS011;64076;51.466;7.260;2022-12-19T13:18:00;4.00;;;2.97;;
75499;SDS011;64076;51.466;7.260;2022-12-19T13:23:17;3.07;;;2.77;;
75499;SDS011;64076;51.466;7.260;2022-12-19T13:39:03;4.13;;;2.90;;
75499;SDS011;64076;51.466;7.260;2022-12-19T13:41:29;3.60;;;2.72;;
75499;SDS011;64076;51.466;7.260;2022-12-19T13:44:23;3.67;;;2.92;;
75499;SDS011;64076;51.466;7.260;2022-12-19T13:46:48;3.93;;;2.83;;
75499;SDS011;64076;51.466;7.260;2022-12-19T13:49:19;3.15;;;2.85;;
75499;SDS011;64076;51.466;7.260;2022-12-19T13:51:48;3.63;;;2.28;;
75499;SDS011;64076;51.466;7.260;2022-12-19T13:54:17;4.45;;;2.83;;
75499;SDS011;64076;51.466;7.260;2022-12-19T13:56:43;2.85;;;2.38;;
75499;SDS011;64076;51.466;7.260;2022-12-19T13:59:09;2.80;;;2.37;;
75499;SDS011;64076;51.466;7.260;2022-12-19T14:01:35;2.58;;;2.10;;
75499;SDS011;64076;51.466;7.260;2022-12-19T14:04:03;2.70;;;2.20;;
75499;SDS011;64076;51.466;7.260;2022-12-19T14:06:30;3.45;;;2.70;;
75499;SDS011;64076;51.466;7.260;2022-12-19T14:09:07;2.88;;;2.33;;
75499;SDS011;64076;51.466;7.260;2022-12-19T14:11:36;3.27;;;2.57;;
75499;SDS011;64076;51.466;7.260;2022-12-19T14:14:03;3.10;;;2.67;;
75499;SDS011;64076;51.466;7.260;2022-12-19T14:16:49;2.90;;;2.28;;
75499;SDS011;64076;51.466;7.260;2022-12-19T14:19:22;3.00;;;2.60;;
75499;SDS011;64076;51.466;7.260;2022-12-19T14:21:49;2.88;;;2.42;;
75499;SDS011;64076;51.466;7.260;2022-12-19T14:24:16;4.50;;;2.60;;
75499;SDS011;64076;51.466;7.260;2022-12-19T14:26:48;3.40;;;2.50;;
75499;SDS011;64076;51.466;7.260;2022-12-19T14:29:25;2.97;;;2.10;;
75499;SDS011;64076;51.466;7.260;2022-12-19T14:31:53;2.72;;;2.30;;
75499;SDS011;64076;51.466;7.260;2022-12-19T14:34:20;2.90;;;2.35;;
75499;SDS011;64076;51.466;7.260;2022-12-19T14:36:48;2.77;;;2.30;;
75499;SDS011;64076;51.466;7.260;2022-12-19T14:39:15;2.92;;;2.60;;
75499;SDS011;64076;51.466;7.260;2022-12-19T14:41:42;2.88;;;2.35;;
75499;SDS011;64076;51.466;7.260;2022-12-19T14:44:44;2.90;;;2.35;;
75499;SDS011;64076;51.466;7.260;2022-12-19T14:47:11;2.92;;;2.20;;
75499;SDS011;64076;51.466;7.260;2022-12-19T14:49:37;2.97;;;2.67;;
75499;SDS011;64076;51.466;7.260;2022-12-19T14:52:03;2.40;;;1.92;;
75499;SDS011;64076;51.466;7.260;2022-12-19T14:54:29;2.63;;;2.28;;
75499;SDS011;64076;51.466;7.260;2022-12-19T14:56:56;3.33;;;2.47;;
75499;SDS011;64076;51.466;7.260;2022-12-19T14:59:33;3.33;;;2.40;;
75499;SDS011;64076;51.466;7.260;2022-12-19T15:04:32;3.38;;;2.55;;
75499;SDS011;64076;51.466;7.260;2022-12-19T15:07:00;3.17;;;2.60;;
75499;SDS011;64076;51.466;7.260;2022-12-19T15:09:26;3.10;;;2.78;;
75499;SDS011;64076;51.466;7.260;2022-12-19T15:11:54;3.40;;;2.10;;
75499;SDS011;64076;51.466;7.260;2022-12-19T15:14:48;3.03;;;2.58;;
75499;SDS011;64076;51.466;7.260;2022-12-19T15:17:19;3.05;;;2.33;;
75499;SDS011;64076;51.466;7.260;2022-12-19T15:19:45;2.97;;;2.20;;
75499;SDS011;64076;51.466;7.260;2022-12-19T15:22:11;3.10;;;2.63;;
75499;SDS011;64076;51.466;7.260;2022-12-19T15:24:37;3.20;;;2.40;;
75499;SDS011;64076;51.466;7.260;2022-12-19T15:27:03;2.83;;;2.42;;
75499;SDS011;64076;51.466;7.260;2022-12-19T15:29:29;2.90;;;2.08;;
75499;SDS011;64076;51.466;7.260;2022-12-19T15:31:57;2.97;;;2.50;;
75499;SDS011;64076;51.466;7.260;2022-12-19T15:34:24;2.60;;;2.30;;
75499;SDS011;64076;51.466;7.260;2022-12-19T15:36:51;2.97;;;2.63;;
75499;SDS011;64076;51.466;7.260;2022-12-19T15:39:17;3.50;;;3.03;;
75499;SDS011;64076;51.466;7.260;2022-12-19T15:41:44;2.83;;;2.53;;
75499;SDS011;64076;51.466;7.260;2022-12-19T15:44:17;2.70;;;2.30;;
75499;SDS011;64076;51.466;7.260;2022-12-19T15:46:45;2.90;;;2.60;;
75499;SDS011;64076;51.466;7.260;2022-12-19T15:49:15;2.75;;;2.40;;
75499;SDS011;64076;51.466;7.260;2022-12-19T15:51:41;3.20;;;2.40;;
75499;SDS011;64076;51.466;7.260;2022-12-19T15:54:07;3.28;;;2.35;;
75499;SDS011;64076;51.466;7.260;2022-12-19T15:56:34;2.90;;;2.35;;
75499;SDS011;64076;51.466;7.260;2022-12-19T15:59:01;2.77;;;2.17;;
75499;SDS011;64076;51.466;7.260;2022-12-19T16:01:27;3.42;;;2.75;;
75499;SDS011;64076;51.466;7.260;2022-12-19T16:03:56;2.88;;;2.50;;
75499;SDS011;64076;51.466;7.260;2022-12-19T16:06:23;2.97;;;2.67;;
75499;SDS011;64076;51.466;7.260;2022-12-19T16:08:49;3.30;;;2.65;;
75499;SDS011;64076;51.466;7.260;2022-12-19T16:11:22;2.97;;;2.60;;
75499;SDS011;64076;51.466;7.260;2022-12-19T16:13:52;2.63;;;2.17;;
75499;SDS011;64076;51.466;7.260;2022-12-19T16:16:19;3.15;;;2.80;;
75499;SDS011;64076;51.466;7.260;2022-12-19T16:18:45;2.60;;;2.40;;
75499;SDS011;64076;51.466;7.260;2022-12-19T16:21:21;3.10;;;2.28;;
75499;SDS011;64076;51.466;7.260;2022-12-19T16:23:49;3.07;;;2.20;;
75499;SDS011;64076;51.466;7.260;2022-12-19T16:26:29;2.58;;;2.35;;
75499;SDS011;64076;51.466;7.260;2022-12-19T16:28:56;2.63;;;2.20;;
75499;SDS011;64076;51.466;7.260;2022-12-19T16:31:23;2.78;;;2.10;;
75499;SDS011;64076;51.466;7.260;2022-12-19T16:33:49;2.63;;;2.22;;
75499;SDS011;64076;51.466;7.260;2022-12-19T16:36:15;3.73;;;2.50;;
75499;SDS011;64076;51.466;7.260;2022-12-19T16:38:41;2.80;;;2.35;;
75499;SDS011;64076;51.466;7.260;2022-12-19T16:41:09;2.67;;;2.30;;
75499;SDS011;64076;51.466;7.260;2022-12-19T16:43:39;3.22;;;2.20;;
75499;SDS011;64076;51.466;7.260;2022-12-19T16:46:07;3.40;;;2.30;;
75499;SDS011;64076;51.466;7.260;2022-12-19T16:48:37;2.40;;;2.20;;
75499;SDS011;64076;51.466;7.260;2022-12-19T16:51:03;2.60;;;2.30;;
75499;SDS011;64076;51.466;7.260;2022-12-19T16:53:29;2.35;;;2.13;;
75499;SDS011;64076;51.466;7.260;2022-12-19T16:55:55;2.40;;;2.10;;
75499;SDS011;64076;51.466;7.260;2022-12-19T16:58:22;2.50;;;2.15;;